sensor_id;sensor_type;location;lat;lon;timestamp;temperature;humidity
7476;DHT22;3779;49.216;8.650;2023-01-20T00:01:57;17.60;32.00
7476;DHT22;3779;49.216;8.650;2023-01-20T00:04:43;17.50;32.30
7476;DHT22;3779;49.216;8.650;2023-01-20T00:07:30;17.50;32.10
7476;DHT22;3779;49.216;8.650;2023-01-20T00:10:16;17.50;31.90
7476;DHT22;3779;49.216;8.650;2023-01-20T00:13:01;17.50;31.90
7476;DHT22;3779;49.216;8.650;2023-01-20T00:15:47;17.50;32.40
7476;DHT22;3779;49.216;8.650;2023-01-20T00:18:34;17.50;31.70
7476;DHT22;3779;49.216;8.650;2023-01-20T00:21:38;17.50;31.90
7476;DHT22;3779;49.216;8.650;2023-01-20T00:24:24;17.40;32.30
7476;DHT22;3779;49.216;8.650;2023-01-20T00:27:10;17.40;31.60
7476;DHT22;3779;49.216;8.650;2023-01-20T00:29:57;17.40;31.50
7476;DHT22;3779;49.216;8.650;2023-01-20T00:32:42;17.40;31.40
7476;DHT22;3779;49.216;8.650;2023-01-20T00:35:29;17.40;31.50
7476;DHT22;3779;49.216;8.650;2023-01-20T00:38:15;17.40;31.30
7476;DHT22;3779;49.216;8.650;2023-01-20T00:41:03;17.40;31.30
7476;DHT22;3779;49.216;8.650;2023-01-20T00:43:49;17.40;31.50
7476;DHT22;3779;49.216;8.650;2023-01-20T00:46:35;17.40;31.50
7476;DHT22;3779;49.216;8.650;2023-01-20T00:49:21;17.60;31.70
7476;DHT22;3779;49.216;8.650;2023-01-20T00:52:07;17.40;31.30
7476;DHT22;3779;49.216;8.650;2023-01-20T00:54:53;17.40;31.40
7476;DHT22;3779;49.216;8.650;2023-01-20T00:57:38;17.40;31.80
7476;DHT22;3779;49.216;8.650;2023-01-20T01:00:24;17.40;31.60
7476;DHT22;3779;49.216;8.650;2023-01-20T01:03:10;17.40;31.50
7476;DHT22;3779;49.216;8.650;2023-01-20T01:06:14;17.40;31.30
7476;DHT22;3779;49.216;8.650;2023-01-20T01:09:00;17.30;31.70
7476;DHT22;3779;49.216;8.650;2023-01-20T01:11:47;17.30;31.40
7476;DHT22;3779;49.216;8.650;2023-01-20T01:14:33;17.30;31.10
7476;DHT22;3779;49.216;8.650;2023-01-20T01:17:19;17.30;30.80
7476;DHT22;3779;49.216;8.650;2023-01-20T01:20:07;17.50;30.90
7476;DHT22;3779;49.216;8.650;2023-01-20T01:22:54;17.30;30.90
7476;DHT22;3779;49.216;8.650;2023-01-20T01:25:41;17.30;31.20
7476;DHT22;3779;49.216;8.650;2023-01-20T01:28:26;17.30;31.20
7476;DHT22;3779;49.216;8.650;2023-01-20T01:31:12;17.30;31.20
7476;DHT22;3779;49.216;8.650;2023-01-20T01:33:58;17.40;31.30
7476;DHT22;3779;49.216;8.650;2023-01-20T01:36:44;17.30;31.50
7476;DHT22;3779;49.216;8.650;2023-01-20T01:39:30;17.30;31.50
7476;DHT22;3779;49.216;8.650;2023-01-20T01:42:19;17.30;31.30
7476;DHT22;3779;49.216;8.650;2023-01-20T01:48:07;17.30;31.30
7476;DHT22;3779;49.216;8.650;2023-01-20T01:51:22;17.30;31.80
7476;DHT22;3779;49.216;8.650;2023-01-20T01:54:15;17.30;32.20
7476;DHT22;3779;49.216;8.650;2023-01-20T01:57:03;17.30;31.70
7476;DHT22;3779;49.216;8.650;2023-01-20T01:59:50;17.30;31.50
7476;DHT22;3779;49.216;8.650;2023-01-20T02:02:36;17.30;31.60
7476;DHT22;3779;49.216;8.650;2023-01-20T02:05:24;17.30;31.70
7476;DHT22;3779;49.216;8.650;2023-01-20T02:08:11;17.30;31.70
7476;DHT22;3779;49.216;8.650;2023-01-20T02:10:57;17.30;31.50
7476;DHT22;3779;49.216;8.650;2023-01-20T02:13:43;17.30;31.50
7476;DHT22;3779;49.216;8.650;2023-01-20T02:16:43;17.50;31.80
7476;DHT22;3779;49.216;8.650;2023-01-20T02:38:03;17.30;31.80
7476;DHT22;3779;49.216;8.650;2023-01-20T02:41:00;17.30;32.00
7476;DHT22;3779;49.216;8.650;2023-01-20T02:44:02;17.30;32.00
7476;DHT22;3779;49.216;8.650;2023-01-20T02:47:01;17.30;32.00
7476;DHT22;3779;49.216;8.650;2023-01-20T02:50:13;17.30;32.00
7476;DHT22;3779;49.216;8.650;2023-01-20T02:53:02;17.30;32.40
7476;DHT22;3779;49.216;8.650;2023-01-20T02:55:51;17.30;31.80
7476;DHT22;3779;49.216;8.650;2023-01-20T02:58:49;17.30;31.90
7476;DHT22;3779;49.216;8.650;2023-01-20T03:01:41;17.30;32.20
7476;DHT22;3779;49.216;8.650;2023-01-20T03:04:32;17.30;31.80
7476;DHT22;3779;49.216;8.650;2023-01-20T03:07:22;17.30;31.80
7476;DHT22;3779;49.216;8.650;2023-01-20T03:10:12;17.30;31.80
7476;DHT22;3779;49.216;8.650;2023-01-20T03:13:05;17.30;31.80
7476;DHT22;3779;49.216;8.650;2023-01-20T03:16:05;17.30;31.80
7476;DHT22;3779;49.216;8.650;2023-01-20T03:18:53;17.30;32.10
7476;DHT22;3779;49.216;8.650;2023-01-20T03:21:39;17.30;31.90
7476;DHT22;3779;49.216;8.650;2023-01-20T03:24:28;17.30;31.80
7476;DHT22;3779;49.216;8.650;2023-01-20T03:27:14;17.40;32.00
7476;DHT22;3779;49.216;8.650;2023-01-20T03:30:00;17.30;31.90
7476;DHT22;3779;49.216;8.650;2023-01-20T03:32:47;17.40;32.00
7476;DHT22;3779;49.216;8.650;2023-01-20T03:35:34;17.40;32.10
7476;DHT22;3779;49.216;8.650;2023-01-20T03:38:20;17.30;31.80
7476;DHT22;3779;49.216;8.650;2023-01-20T03:41:16;17.30;31.70
7476;DHT22;3779;49.216;8.650;2023-01-20T03:47:29;17.30;32.30
7476;DHT22;3779;49.216;8.650;2023-01-20T03:50:39;17.30;31.80
7476;DHT22;3779;49.216;8.650;2023-01-20T03:56:42;17.30;31.80
7476;DHT22;3779;49.216;8.650;2023-01-20T03:59:33;17.30;31.90
7476;DHT22;3779;49.216;8.650;2023-01-20T04:02:21;17.30;31.60
7476;DHT22;3779;49.216;8.650;2023-01-20T04:05:09;17.30;32.30
7476;DHT22;3779;49.216;8.650;2023-01-20T04:07:56;17.30;31.50
7476;DHT22;3779;49.216;8.650;2023-01-20T04:10:46;17.30;31.60
7476;DHT22;3779;49.216;8.650;2023-01-20T04:13:33;17.30;31.50
7476;DHT22;3779;49.216;8.650;2023-01-20T04:16:20;17.30;31.50
7476;DHT22;3779;49.216;8.650;2023-01-20T04:19:07;17.30;31.30
7476;DHT22;3779;49.216;8.650;2023-01-20T04:22:42;17.30;31.30
7476;DHT22;3779;49.216;8.650;2023-01-20T04:25:23;17.30;31.80
7476;DHT22;3779;49.216;8.650;2023-01-20T04:28:09;17.30;31.50
7476;DHT22;3779;49.216;8.650;2023-01-20T04:30:55;17.30;31.50
7476;DHT22;3779;49.216;8.650;2023-01-20T04:33:40;17.30;31.40
7476;DHT22;3779;49.216;8.650;2023-01-20T04:36:27;17.30;31.40
7476;DHT22;3779;49.216;8.650;2023-01-20T04:39:13;17.30;31.20
7476;DHT22;3779;49.216;8.650;2023-01-20T04:41:59;17.30;31.10
7476;DHT22;3779;49.216;8.650;2023-01-20T04:44:45;17.30;31.30
7476;DHT22;3779;49.216;8.650;2023-01-20T04:47:31;17.30;31.20
7476;DHT22;3779;49.216;8.650;2023-01-20T04:50:18;17.30;31.20
7476;DHT22;3779;49.216;8.650;2023-01-20T04:53:04;17.30;31.30
7476;DHT22;3779;49.216;8.650;2023-01-20T04:55:50;17.30;31.20
7476;DHT22;3779;49.216;8.650;2023-01-20T04:58:36;17.30;31.20
7476;DHT22;3779;49.216;8.650;2023-01-20T05:01:21;17.30;31.20
7476;DHT22;3779;49.216;8.650;2023-01-20T05:04:07;17.30;31.10
7476;DHT22;3779;49.216;8.650;2023-01-20T05:06:53;17.30;31.20
7476;DHT22;3779;49.216;8.650;2023-01-20T05:09:39;17.30;31.10
7476;DHT22;3779;49.216;8.650;2023-01-20T05:12:25;17.30;31.10
7476;DHT22;3779;49.216;8.650;2023-01-20T05:15:11;17.40;31.20
7476;DHT22;3779;49.216;8.650;2023-01-20T05:17:57;17.30;30.90
7476;DHT22;3779;49.216;8.650;2023-01-20T05:20:46;17.30;30.90
7476;DHT22;3779;49.216;8.650;2023-01-20T05:23:33;17.20;31.00
7476;DHT22;3779;49.216;8.650;2023-01-20T05:26:21;17.20;30.80
7476;DHT22;3779;49.216;8.650;2023-01-20T05:29:07;17.20;30.80
7476;DHT22;3779;49.216;8.650;2023-01-20T05:31:54;17.20;30.60
7476;DHT22;3779;49.216;8.650;2023-01-20T05:34:40;17.20;30.70
7476;DHT22;3779;49.216;8.650;2023-01-20T05:37:26;17.20;30.60
7476;DHT22;3779;49.216;8.650;2023-01-20T05:40:13;17.20;30.50
7476;DHT22;3779;49.216;8.650;2023-01-20T05:42:59;17.20;31.20
7476;DHT22;3779;49.216;8.650;2023-01-20T05:45:45;17.20;30.50
7476;DHT22;3779;49.216;8.650;2023-01-20T05:48:33;17.20;30.50
7476;DHT22;3779;49.216;8.650;2023-01-20T05:51:19;17.20;30.30
7476;DHT22;3779;49.216;8.650;2023-01-20T05:54:05;17.20;30.10
7476;DHT22;3779;49.216;8.650;2023-01-20T05:56:51;17.20;30.00
7476;DHT22;3779;49.216;8.650;2023-01-20T05:59:37;17.20;30.10
7476;DHT22;3779;49.216;8.650;2023-01-20T06:02:23;17.20;30.20
7476;DHT22;3779;49.216;8.650;2023-01-20T06:05:08;17.20;30.00
7476;DHT22;3779;49.216;8.650;2023-01-20T06:07:55;17.20;30.10
7476;DHT22;3779;49.216;8.650;2023-01-20T06:10:41;17.20;30.20
7476;DHT22;3779;49.216;8.650;2023-01-20T06:13:27;17.20;30.00
7476;DHT22;3779;49.216;8.650;2023-01-20T06:16:13;17.20;30.40
7476;DHT22;3779;49.216;8.650;2023-01-20T06:18:59;17.20;30.30
7476;DHT22;3779;49.216;8.650;2023-01-20T06:21:46;17.20;30.00
7476;DHT22;3779;49.216;8.650;2023-01-20T06:24:32;17.20;30.70
7476;DHT22;3779;49.216;8.650;2023-01-20T06:27:18;17.20;29.90
7476;DHT22;3779;49.216;8.650;2023-01-20T06:30:05;17.20;30.00
7476;DHT22;3779;49.216;8.650;2023-01-20T06:32:51;17.20;30.00
7476;DHT22;3779;49.216;8.650;2023-01-20T06:35:39;17.20;30.00
7476;DHT22;3779;49.216;8.650;2023-01-20T06:38:27;17.20;29.60
7476;DHT22;3779;49.216;8.650;2023-01-20T06:41:14;17.10;30.00
7476;DHT22;3779;49.216;8.650;2023-01-20T06:44:00;17.10;29.70
7476;DHT22;3779;49.216;8.650;2023-01-20T06:46:46;17.10;30.00
7476;DHT22;3779;49.216;8.650;2023-01-20T06:49:32;17.20;29.80
7476;DHT22;3779;49.216;8.650;2023-01-20T06:52:18;17.10;29.60
7476;DHT22;3779;49.216;8.650;2023-01-20T06:55:04;17.10;29.40
7476;DHT22;3779;49.216;8.650;2023-01-20T06:57:50;17.10;29.40
7476;DHT22;3779;49.216;8.650;2023-01-20T07:00:36;17.10;28.90
7476;DHT22;3779;49.216;8.650;2023-01-20T07:03:23;17.10;29.20
7476;DHT22;3779;49.216;8.650;2023-01-20T07:06:16;17.10;29.40
7476;DHT22;3779;49.216;8.650;2023-01-20T07:09:02;17.10;29.40
7476;DHT22;3779;49.216;8.650;2023-01-20T07:11:48;17.10;29.10
7476;DHT22;3779;49.216;8.650;2023-01-20T07:14:34;17.00;28.70
7476;DHT22;3779;49.216;8.650;2023-01-20T07:17:20;17.00;28.90
7476;DHT22;3779;49.216;8.650;2023-01-20T07:20:07;17.00;29.30
7476;DHT22;3779;49.216;8.650;2023-01-20T07:22:53;17.00;29.20
7476;DHT22;3779;49.216;8.650;2023-01-20T07:25:39;17.00;29.10
7476;DHT22;3779;49.216;8.650;2023-01-20T07:28:25;17.10;29.30
7476;DHT22;3779;49.216;8.650;2023-01-20T07:31:12;17.20;29.50
7476;DHT22;3779;49.216;8.650;2023-01-20T07:33:59;17.10;29.60
7476;DHT22;3779;49.216;8.650;2023-01-20T07:36:45;17.10;29.70
7476;DHT22;3779;49.216;8.650;2023-01-20T07:39:31;17.20;29.10
7476;DHT22;3779;49.216;8.650;2023-01-20T07:42:17;17.10;28.30
7476;DHT22;3779;49.216;8.650;2023-01-20T07:45:03;17.10;27.20
7476;DHT22;3779;49.216;8.650;2023-01-20T07:47:49;16.90;27.10
7476;DHT22;3779;49.216;8.650;2023-01-20T07:50:36;16.90;27.10
7476;DHT22;3779;49.216;8.650;2023-01-20T07:53:22;16.80;27.20
7476;DHT22;3779;49.216;8.650;2023-01-20T07:56:10;16.80;27.20
7476;DHT22;3779;49.216;8.650;2023-01-20T07:58:56;16.70;27.40
7476;DHT22;3779;49.216;8.650;2023-01-20T08:01:42;16.70;28.80
7476;DHT22;3779;49.216;8.650;2023-01-20T08:04:28;16.90;29.50
7476;DHT22;3779;49.216;8.650;2023-01-20T08:07:14;16.80;29.10
7476;DHT22;3779;49.216;8.650;2023-01-20T08:10:01;16.80;29.10
7476;DHT22;3779;49.216;8.650;2023-01-20T08:12:47;17.10;29.50
7476;DHT22;3779;49.216;8.650;2023-01-20T08:15:33;16.80;28.90
7476;DHT22;3779;49.216;8.650;2023-01-20T08:18:19;16.90;29.10
7476;DHT22;3779;49.216;8.650;2023-01-20T08:21:06;16.90;29.00
7476;DHT22;3779;49.216;8.650;2023-01-20T08:24:01;16.90;29.10
7476;DHT22;3779;49.216;8.650;2023-01-20T08:26:47;16.90;29.10
7476;DHT22;3779;49.216;8.650;2023-01-20T08:29:34;16.90;29.20
7476;DHT22;3779;49.216;8.650;2023-01-20T08:32:20;17.00;29.30
7476;DHT22;3779;49.216;8.650;2023-01-20T08:35:07;17.00;29.50
7476;DHT22;3779;49.216;8.650;2023-01-20T08:37:53;17.00;29.70
7476;DHT22;3779;49.216;8.650;2023-01-20T08:40:42;17.00;29.60
7476;DHT22;3779;49.216;8.650;2023-01-20T08:43:28;17.10;29.90
7476;DHT22;3779;49.216;8.650;2023-01-20T08:46:15;17.10;29.90
7476;DHT22;3779;49.216;8.650;2023-01-20T08:49:01;17.10;30.10
7476;DHT22;3779;49.216;8.650;2023-01-20T08:51:50;17.10;30.00
7476;DHT22;3779;49.216;8.650;2023-01-20T08:54:36;17.10;30.60
7476;DHT22;3779;49.216;8.650;2023-01-20T08:57:24;17.20;30.10
7476;DHT22;3779;49.216;8.650;2023-01-20T09:00:11;17.10;30.30
7476;DHT22;3779;49.216;8.650;2023-01-20T09:02:58;17.10;30.50
7476;DHT22;3779;49.216;8.650;2023-01-20T09:05:44;17.10;30.90
7476;DHT22;3779;49.216;8.650;2023-01-20T09:08:30;17.20;30.60
7476;DHT22;3779;49.216;8.650;2023-01-20T09:11:20;17.20;30.80
7476;DHT22;3779;49.216;8.650;2023-01-20T09:14:06;17.20;30.80
7476;DHT22;3779;49.216;8.650;2023-01-20T09:16:52;17.20;31.10
7476;DHT22;3779;49.216;8.650;2023-01-20T09:19:38;17.20;30.80
7476;DHT22;3779;49.216;8.650;2023-01-20T09:22:24;17.30;30.80
7476;DHT22;3779;49.216;8.650;2023-01-20T09:25:10;17.30;31.10
7476;DHT22;3779;49.216;8.650;2023-01-20T09:27:59;17.30;30.90
7476;DHT22;3779;49.216;8.650;2023-01-20T09:30:46;17.30;31.20
7476;DHT22;3779;49.216;8.650;2023-01-20T09:33:33;17.30;31.50
7476;DHT22;3779;49.216;8.650;2023-01-20T09:36:20;17.30;31.60
7476;DHT22;3779;49.216;8.650;2023-01-20T09:39:07;17.40;31.20
7476;DHT22;3779;49.216;8.650;2023-01-20T09:45:37;17.40;32.50
7476;DHT22;3779;49.216;8.650;2023-01-20T09:48:51;17.40;31.90
7476;DHT22;3779;49.216;8.650;2023-01-20T09:52:26;17.40;32.30
7476;DHT22;3779;49.216;8.650;2023-01-20T09:58:51;17.50;32.70
7476;DHT22;3779;49.216;8.650;2023-01-20T10:01:47;17.50;32.40
7476;DHT22;3779;49.216;8.650;2023-01-20T10:04:39;17.60;32.50
7476;DHT22;3779;49.216;8.650;2023-01-20T10:07:35;17.60;33.50
7476;DHT22;3779;49.216;8.650;2023-01-20T10:10:34;17.70;32.60
7476;DHT22;3779;49.216;8.650;2023-01-20T10:13:34;17.70;32.00
7476;DHT22;3779;49.216;8.650;2023-01-20T10:16:47;17.60;32.10
7476;DHT22;3779;49.216;8.650;2023-01-20T10:19:55;17.60;33.50
7476;DHT22;3779;49.216;8.650;2023-01-20T10:23:00;17.80;33.70
7476;DHT22;3779;49.216;8.650;2023-01-20T10:29:22;17.80;33.00
7476;DHT22;3779;49.216;8.650;2023-01-20T10:35:19;17.80;32.10
7476;DHT22;3779;49.216;8.650;2023-01-20T10:38:17;17.80;34.40
7476;DHT22;3779;49.216;8.650;2023-01-20T10:44:15;17.90;32.10
7476;DHT22;3779;49.216;8.650;2023-01-20T10:56:03;17.70;32.50
7476;DHT22;3779;49.216;8.650;2023-01-20T10:58:51;17.80;32.50
7476;DHT22;3779;49.216;8.650;2023-01-20T11:01:37;17.80;31.50
7476;DHT22;3779;49.216;8.650;2023-01-20T11:04:23;17.80;31.10
7476;DHT22;3779;49.216;8.650;2023-01-20T11:07:15;17.70;31.30
7476;DHT22;3779;49.216;8.650;2023-01-20T11:10:24;17.70;31.40
7476;DHT22;3779;49.216;8.650;2023-01-20T11:13:11;17.70;32.50
7476;DHT22;3779;49.216;8.650;2023-01-20T11:16:01;17.70;31.80
7476;DHT22;3779;49.216;8.650;2023-01-20T11:19:03;17.70;31.80
7476;DHT22;3779;49.216;8.650;2023-01-20T11:21:49;17.70;32.40
7476;DHT22;3779;49.216;8.650;2023-01-20T11:24:42;17.80;31.40
7476;DHT22;3779;49.216;8.650;2023-01-20T11:27:36;17.80;31.10
7476;DHT22;3779;49.216;8.650;2023-01-20T11:30:30;17.80;32.10
7476;DHT22;3779;49.216;8.650;2023-01-20T11:33:24;17.70;31.90
7476;DHT22;3779;49.216;8.650;2023-01-20T11:36:16;17.70;32.20
7476;DHT22;3779;49.216;8.650;2023-01-20T11:39:24;17.90;32.60
7476;DHT22;3779;49.216;8.650;2023-01-20T11:42:47;17.70;33.10
7476;DHT22;3779;49.216;8.650;2023-01-20T11:45:34;17.70;32.80
7476;DHT22;3779;49.216;8.650;2023-01-20T11:48:20;17.70;32.00
7476;DHT22;3779;49.216;8.650;2023-01-20T11:51:20;17.80;32.30
7476;DHT22;3779;49.216;8.650;2023-01-20T11:54:09;17.70;32.90
7476;DHT22;3779;49.216;8.650;2023-01-20T11:57:05;17.70;32.30
7476;DHT22;3779;49.216;8.650;2023-01-20T11:59:55;17.70;32.20
7476;DHT22;3779;49.216;8.650;2023-01-20T12:02:41;17.70;32.10
7476;DHT22;3779;49.216;8.650;2023-01-20T12:05:38;17.70;32.10
7476;DHT22;3779;49.216;8.650;2023-01-20T12:08:33;17.70;32.70
7476;DHT22;3779;49.216;8.650;2023-01-20T12:11:33;17.70;32.90
7476;DHT22;3779;49.216;8.650;2023-01-20T12:20:47;17.70;32.70
7476;DHT22;3779;49.216;8.650;2023-01-20T12:26:34;17.80;32.30
7476;DHT22;3779;49.216;8.650;2023-01-20T12:29:39;17.80;32.40
7476;DHT22;3779;49.216;8.650;2023-01-20T12:32:29;17.90;32.20
7476;DHT22;3779;49.216;8.650;2023-01-20T12:35:19;17.70;31.70
7476;DHT22;3779;49.216;8.650;2023-01-20T12:38:10;17.70;31.50
7476;DHT22;3779;49.216;8.650;2023-01-20T12:41:02;17.70;31.40
7476;DHT22;3779;49.216;8.650;2023-01-20T12:43:59;17.70;31.40
7476;DHT22;3779;49.216;8.650;2023-01-20T13:05:20;17.70;32.60
7476;DHT22;3779;49.216;8.650;2023-01-20T13:08:52;17.70;32.30
7476;DHT22;3779;49.216;8.650;2023-01-20T13:15:50;17.70;31.70
7476;DHT22;3779;49.216;8.650;2023-01-20T13:18:33;17.60;32.10
7476;DHT22;3779;49.216;8.650;2023-01-20T13:21:19;17.70;31.30
7476;DHT22;3779;49.216;8.650;2023-01-20T13:24:11;17.70;31.50
7476;DHT22;3779;49.216;8.650;2023-01-20T13:27:03;17.70;30.90
7476;DHT22;3779;49.216;8.650;2023-01-20T13:32:43;17.60;30.90
7476;DHT22;3779;49.216;8.650;2023-01-20T13:35:36;17.60;31.20
7476;DHT22;3779;49.216;8.650;2023-01-20T13:38:26;17.60;31.70
7476;DHT22;3779;49.216;8.650;2023-01-20T13:42:15;17.70;32.00
7476;DHT22;3779;49.216;8.650;2023-01-20T13:50:53;17.70;32.10
7476;DHT22;3779;49.216;8.650;2023-01-20T13:53:38;17.70;31.40
7476;DHT22;3779;49.216;8.650;2023-01-20T13:56:31;17.80;31.50
7476;DHT22;3779;49.216;8.650;2023-01-20T13:59:17;17.70;31.40
7476;DHT22;3779;49.216;8.650;2023-01-20T14:02:21;17.70;31.00
7476;DHT22;3779;49.216;8.650;2023-01-20T14:05:28;17.70;32.30
7476;DHT22;3779;49.216;8.650;2023-01-20T14:08:14;17.60;32.00
7476;DHT22;3779;49.216;8.650;2023-01-20T14:14:03;17.70;31.10
7476;DHT22;3779;49.216;8.650;2023-01-20T14:16:52;17.70;30.70
7476;DHT22;3779;49.216;8.650;2023-01-20T14:19:38;17.70;30.40
7476;DHT22;3779;49.216;8.650;2023-01-20T14:22:27;17.70;30.40
7476;DHT22;3779;49.216;8.650;2023-01-20T14:25:20;17.70;31.10
7476;DHT22;3779;49.216;8.650;2023-01-20T14:28:17;17.60;30.90
7476;DHT22;3779;49.216;8.650;2023-01-20T14:31:11;17.70;31.70
7476;DHT22;3779;49.216;8.650;2023-01-20T14:36:45;17.70;31.00
7476;DHT22;3779;49.216;8.650;2023-01-20T14:39:31;17.70;31.20
7476;DHT22;3779;49.216;8.650;2023-01-20T14:42:20;17.70;31.00
7476;DHT22;3779;49.216;8.650;2023-01-20T14:45:18;17.70;30.40
7476;DHT22;3779;49.216;8.650;2023-01-20T14:48:04;17.60;30.90
7476;DHT22;3779;49.216;8.650;2023-01-20T14:50:50;17.60;30.30
7476;DHT22;3779;49.216;8.650;2023-01-20T14:53:38;17.60;30.80
7476;DHT22;3779;49.216;8.650;2023-01-20T14:56:24;17.70;31.30
7476;DHT22;3779;49.216;8.650;2023-01-20T14:59:17;17.60;30.20
7476;DHT22;3779;49.216;8.650;2023-01-20T15:02:07;17.70;32.60
7476;DHT22;3779;49.216;8.650;2023-01-20T15:04:59;17.70;30.20
7476;DHT22;3779;49.216;8.650;2023-01-20T15:07:45;17.70;30.40
7476;DHT22;3779;49.216;8.650;2023-01-20T15:10:31;17.80;30.60
7476;DHT22;3779;49.216;8.650;2023-01-20T15:13:25;17.70;30.30
7476;DHT22;3779;49.216;8.650;2023-01-20T15:22:21;17.60;31.10
7476;DHT22;3779;49.216;8.650;2023-01-20T15:25:11;17.60;31.70
7476;DHT22;3779;49.216;8.650;2023-01-20T15:27:58;17.60;31.10
7476;DHT22;3779;49.216;8.650;2023-01-20T15:30:44;17.60;31.00
7476;DHT22;3779;49.216;8.650;2023-01-20T15:33:29;17.60;31.10
7476;DHT22;3779;49.216;8.650;2023-01-20T15:36:20;17.60;30.70
7476;DHT22;3779;49.216;8.650;2023-01-20T15:39:13;17.60;30.00
7476;DHT22;3779;49.216;8.650;2023-01-20T15:41:59;17.60;30.70
7476;DHT22;3779;49.216;8.650;2023-01-20T15:44:46;17.60;31.10
7476;DHT22;3779;49.216;8.650;2023-01-20T15:47:32;17.60;30.40
7476;DHT22;3779;49.216;8.650;2023-01-20T15:50:21;17.60;30.70
7476;DHT22;3779;49.216;8.650;2023-01-20T15:53:07;17.60;30.40
7476;DHT22;3779;49.216;8.650;2023-01-20T15:55:53;17.60;30.10
7476;DHT22;3779;49.216;8.650;2023-01-20T15:58:39;17.60;29.90
7476;DHT22;3779;49.216;8.650;2023-01-20T16:01:26;17.60;30.70
7476;DHT22;3779;49.216;8.650;2023-01-20T16:04:13;17.60;29.90
7476;DHT22;3779;49.216;8.650;2023-01-20T16:06:59;17.60;29.90
7476;DHT22;3779;49.216;8.650;2023-01-20T16:09:46;17.60;30.00
7476;DHT22;3779;49.216;8.650;2023-01-20T16:12:32;17.60;29.90
7476;DHT22;3779;49.216;8.650;2023-01-20T16:15:18;17.50;29.80
7476;DHT22;3779;49.216;8.650;2023-01-20T16:18:04;17.60;30.40
7476;DHT22;3779;49.216;8.650;2023-01-20T16:20:50;17.60;30.10
7476;DHT22;3779;49.216;8.650;2023-01-20T16:23:36;17.60;30.00
7476;DHT22;3779;49.216;8.650;2023-01-20T16:26:24;17.60;30.10
7476;DHT22;3779;49.216;8.650;2023-01-20T16:29:11;17.60;30.40
7476;DHT22;3779;49.216;8.650;2023-01-20T16:31:57;17.60;30.20
7476;DHT22;3779;49.216;8.650;2023-01-20T16:34:42;17.60;30.20
7476;DHT22;3779;49.216;8.650;2023-01-20T16:37:28;17.60;30.00
7476;DHT22;3779;49.216;8.650;2023-01-20T16:40:16;17.80;30.30
7476;DHT22;3779;49.216;8.650;2023-01-20T16:43:02;17.60;30.00
7476;DHT22;3779;49.216;8.650;2023-01-20T16:45:49;17.60;30.00
7476;DHT22;3779;49.216;8.650;2023-01-20T16:48:38;17.60;29.90
7476;DHT22;3779;49.216;8.650;2023-01-20T16:51:25;17.60;29.70
7476;DHT22;3779;49.216;8.650;2023-01-20T16:54:11;17.70;29.70
7476;DHT22;3779;49.216;8.650;2023-01-20T16:56:57;17.50;29.40
7476;DHT22;3779;49.216;8.650;2023-01-20T16:59:43;17.50;29.50
7476;DHT22;3779;49.216;8.650;2023-01-20T17:02:31;17.50;29.50
7476;DHT22;3779;49.216;8.650;2023-01-20T17:05:19;17.60;29.70
7476;DHT22;3779;49.216;8.650;2023-01-20T17:08:08;17.50;29.60
7476;DHT22;3779;49.216;8.650;2023-01-20T17:10:54;17.50;29.30
7476;DHT22;3779;49.216;8.650;2023-01-20T17:13:40;17.50;29.10
7476;DHT22;3779;49.216;8.650;2023-01-20T17:16:26;17.50;28.60
7476;DHT22;3779;49.216;8.650;2023-01-20T17:19:11;17.50;28.60
7476;DHT22;3779;49.216;8.650;2023-01-20T17:21:57;17.50;29.00
7476;DHT22;3779;49.216;8.650;2023-01-20T17:24:43;17.60;28.80
7476;DHT22;3779;49.216;8.650;2023-01-20T17:27:29;17.50;29.10
7476;DHT22;3779;49.216;8.650;2023-01-20T17:30:16;17.50;29.50
7476;DHT22;3779;49.216;8.650;2023-01-20T17:33:02;17.50;29.40
7476;DHT22;3779;49.216;8.650;2023-01-20T17:35:58;17.50;29.40
7476;DHT22;3779;49.216;8.650;2023-01-20T17:38:44;17.50;29.60
7476;DHT22;3779;49.216;8.650;2023-01-20T17:41:31;17.50;29.60
7476;DHT22;3779;49.216;8.650;2023-01-20T17:44:17;17.50;29.40
7476;DHT22;3779;49.216;8.650;2023-01-20T17:47:04;17.50;29.20
7476;DHT22;3779;49.216;8.650;2023-01-20T17:49:50;17.50;29.60
7476;DHT22;3779;49.216;8.650;2023-01-20T17:52:36;17.50;29.60
7476;DHT22;3779;49.216;8.650;2023-01-20T17:55:21;17.60;29.20
7476;DHT22;3779;49.216;8.650;2023-01-20T17:58:09;17.50;29.50
7476;DHT22;3779;49.216;8.650;2023-01-20T18:00:56;17.60;29.90
7476;DHT22;3779;49.216;8.650;2023-01-20T18:03:42;17.60;30.00
7476;DHT22;3779;49.216;8.650;2023-01-20T18:06:28;17.60;29.90
7476;DHT22;3779;49.216;8.650;2023-01-20T18:09:15;17.70;29.80
7476;DHT22;3779;49.216;8.650;2023-01-20T18:12:00;17.70;30.00
7476;DHT22;3779;49.216;8.650;2023-01-20T18:14:46;17.70;29.70
7476;DHT22;3779;49.216;8.650;2023-01-20T18:17:33;17.70;29.80
7476;DHT22;3779;49.216;8.650;2023-01-20T18:20:18;17.70;29.90
7476;DHT22;3779;49.216;8.650;2023-01-20T18:23:04;17.70;29.10
7476;DHT22;3779;49.216;8.650;2023-01-20T18:25:53;17.70;31.90
7476;DHT22;3779;49.216;8.650;2023-01-20T18:28:41;17.70;29.60
7476;DHT22;3779;49.216;8.650;2023-01-20T18:31:28;17.70;29.60
7476;DHT22;3779;49.216;8.650;2023-01-20T18:34:15;17.60;28.90
7476;DHT22;3779;49.216;8.650;2023-01-20T18:37:00;17.60;29.30
7476;DHT22;3779;49.216;8.650;2023-01-20T18:39:46;17.60;30.10
7476;DHT22;3779;49.216;8.650;2023-01-20T18:42:32;17.70;29.40
7476;DHT22;3779;49.216;8.650;2023-01-20T18:45:18;17.60;29.20
7476;DHT22;3779;49.216;8.650;2023-01-20T18:48:04;17.70;28.80
7476;DHT22;3779;49.216;8.650;2023-01-20T18:50:51;17.50;29.20
7476;DHT22;3779;49.216;8.650;2023-01-20T18:53:43;17.50;29.70
7476;DHT22;3779;49.216;8.650;2023-01-20T18:56:30;17.50;30.30
7476;DHT22;3779;49.216;8.650;2023-01-20T18:59:17;17.60;29.90
7476;DHT22;3779;49.216;8.650;2023-01-20T19:02:03;17.60;30.00
7476;DHT22;3779;49.216;8.650;2023-01-20T19:04:49;17.50;30.00
7476;DHT22;3779;49.216;8.650;2023-01-20T19:07:35;17.50;29.90
7476;DHT22;3779;49.216;8.650;2023-01-20T19:10:21;17.50;31.70
7476;DHT22;3779;49.216;8.650;2023-01-20T19:13:07;17.60;29.90
7476;DHT22;3779;49.216;8.650;2023-01-20T19:15:53;17.60;29.90
7476;DHT22;3779;49.216;8.650;2023-01-20T19:18:40;17.60;30.10
7476;DHT22;3779;49.216;8.650;2023-01-20T19:21:27;17.50;30.10
7476;DHT22;3779;49.216;8.650;2023-01-20T19:24:17;17.50;30.20
7476;DHT22;3779;49.216;8.650;2023-01-20T19:27:04;17.50;30.70
7476;DHT22;3779;49.216;8.650;2023-01-20T19:29:50;17.90;32.40
7476;DHT22;3779;49.216;8.650;2023-01-20T19:32:39;17.70;30.70
7476;DHT22;3779;49.216;8.650;2023-01-20T19:35:26;17.70;30.80
7476;DHT22;3779;49.216;8.650;2023-01-20T19:38:13;17.60;29.90
7476;DHT22;3779;49.216;8.650;2023-01-20T19:41:10;17.60;30.30
7476;DHT22;3779;49.216;8.650;2023-01-20T19:43:57;17.60;31.10
7476;DHT22;3779;49.216;8.650;2023-01-20T19:46:44;17.60;30.50
7476;DHT22;3779;49.216;8.650;2023-01-20T19:49:30;17.60;30.90
7476;DHT22;3779;49.216;8.650;2023-01-20T19:52:16;17.60;30.50
7476;DHT22;3779;49.216;8.650;2023-01-20T19:55:02;17.60;30.50
7476;DHT22;3779;49.216;8.650;2023-01-20T19:57:48;17.60;30.40
7476;DHT22;3779;49.216;8.650;2023-01-20T20:00:34;17.50;30.60
7476;DHT22;3779;49.216;8.650;2023-01-20T20:03:21;17.50;31.20
7476;DHT22;3779;49.216;8.650;2023-01-20T20:06:24;17.60;31.60
7476;DHT22;3779;49.216;8.650;2023-01-20T20:09:13;17.60;30.90
7476;DHT22;3779;49.216;8.650;2023-01-20T20:12:00;17.60;30.40